Hlavní strana
METAR-TAF:

METAR-TAF

Letiště :

Rantoul National Aviation Center Airport (Frank Elliott Field)

Rantoul, Illinois, Spojené státy americké

zeměpisná šířka: 40-17-37N, zeměpisná délka: 088-08-33W, výška: 225 m

Aktuální stav počasí

Zpráva byla vytvořena před 25 minutami, v 22:15 UTC
Severní vítr 11 kt s nárazy do 18 kt
Teplota 9°C
Vlhkost vzduchu 53%
Tlak 1023 hPa
Viditelnost: 16.1 km
Jasno

METAR: KTIP 252215Z AUTO 01011G18KT 10SM CLR 09/00 A3021 RMK AO2 T00850001

Čas: 17:40 (22:40 UTC)


TAF: chybějící

Stav a předpovědi počasí z více než 4 000 letišť (zprávy METAR a TAF).

Červené a žluté tečky na mapě představují dostupné meteorologické stanice.

Když kurzor umístíte na tečku, zobrazí se název stanice.

Pak kliknutím zobrazíte stav a předpověď počasí.

Chcete-li změnit mapu, kliknutím na zelené tlačítko se znaménkem +mapu přiblížíte, kliknutím na zelené tlačítko se znaménkem – mapu oddálíte a kliknutím na zelené šipky přejdete na sousední mapy.


METAR-TAF: